Time;durP1;ratioP1;P1;durP2;ratioP2;P2;SDS_P1;SDS_P2;PMS_P1;PMS_P2;Temp;Humidity;BMP_temperature;BMP_pressure;BME280_temperature;BME280_humidity;BME280_pressure;Samples;Min_cycle;Max_cycle;Signal;HPM_P1;HPM_P2
2021/07/23 00:00:33;;;;;;;9.18;6.20;;;17.40;99.90;;;;;;5094427;28;20122;-72
2021/07/23 00:02:58;;;;;;;8.32;5.43;;;17.50;99.90;;;;;;5095389;28;20114;-72
2021/07/23 00:05:24;;;;;;;7.88;5.13;;;17.50;99.90;;;;;;5094923;28;20063;-72
2021/07/23 00:07:50;;;;;;;9.68;5.70;;;17.50;99.90;;;;;;5094859;28;20086;-73
2021/07/23 00:10:16;;;;;;;8.25;5.57;;;17.50;99.90;;;;;;5094780;28;20048;-71
2021/07/23 00:12:41;;;;;;;7.70;5.50;;;17.50;99.90;;;;;;5094604;28;20545;-72
2021/07/23 00:15:08;;;;;;;7.88;5.38;;;17.50;99.90;;;;;;5094739;28;20476;-72
2021/07/23 00:17:33;;;;;;;6.63;5.05;;;17.50;99.90;;;;;;5095104;27;20047;-73
2021/07/23 00:19:59;;;;;;;7.43;5.65;;;17.50;99.90;;;;;;5093075;28;20568;-71
2021/07/23 00:22:25;;;;;;;7.72;5.95;;;17.50;99.90;;;;;;5094325;28;20036;-73
2021/07/23 00:24:51;;;;;;;10.00;5.85;;;17.50;99.90;;;;;;5094474;28;20103;-73
2021/07/23 00:27:17;;;;;;;10.93;6.75;;;17.50;99.90;;;;;;5094394;28;20546;-73
2021/07/23 00:29:43;;;;;;;8.50;6.18;;;17.40;99.90;;;;;;5093991;28;20044;-72
2021/07/23 00:32:09;;;;;;;8.57;5.78;;;17.40;99.90;;;;;;5094026;28;20488;-72
2021/07/23 00:34:35;;;;;;;7.88;5.88;;;17.40;99.90;;;;;;5094173;28;20032;-72
2021/07/23 00:37:03;;;;;;;10.07;6.80;;;17.40;99.90;;;;;;5094609;28;20032;-72
2021/07/23 00:39:29;;;;;;;11.02;6.78;;;17.40;99.90;;;;;;5094274;28;20040;-72
2021/07/23 00:41:55;;;;;;;10.23;7.38;;;17.40;99.90;;;;;;5093925;28;20089;-73
2021/07/23 00:44:20;;;;;;;11.52;7.20;;;17.40;99.90;;;;;;5094717;28;20067;-72
2021/07/23 00:46:46;;;;;;;9.98;7.10;;;17.40;99.90;;;;;;5093918;28;20032;-73
2021/07/23 00:49:12;;;;;;;9.38;6.32;;;17.40;99.90;;;;;;5093552;28;20093;-72
2021/07/23 00:51:38;;;;;;;11.75;6.80;;;17.40;99.90;;;;;;5093990;28;20107;-73
2021/07/23 00:54:06;;;;;;;11.55;7.05;;;17.40;99.90;;;;;;5094156;28;20044;-72
2021/07/23 00:56:31;;;;;;;12.43;7.35;;;17.40;99.90;;;;;;5093931;28;20420;-72
2021/07/23 00:58:59;;;;;;;10.60;7.00;;;17.40;99.90;;;;;;5092271;28;20120;-72
2021/07/23 01:01:26;;;;;;;9.80;6.18;;;17.40;99.90;;;;;;5093907;28;20036;-71
2021/07/23 01:03:51;;;;;;;13.05;6.85;;;17.40;99.90;;;;;;5093007;28;20056;-71
2021/07/23 01:06:17;;;;;;;9.82;6.38;;;17.40;99.90;;;;;;5093586;28;20109;-71
2021/07/23 01:08:43;;;;;;;9.13;6.68;;;17.40;99.90;;;;;;5093619;28;20166;-71
2021/07/23 01:11:12;;;;;;;10.55;6.70;;;17.40;99.90;;;;;;5094310;28;20361;-71
2021/07/23 01:13:40;;;;;;;9.32;6.55;;;17.40;99.90;;;;;;5094035;28;20032;-71
2021/07/23 01:16:06;;;;;;;12.65;7.18;;;17.40;99.90;;;;;;5093593;28;20175;-71
2021/07/23 01:18:32;;;;;;;10.65;6.95;;;17.40;99.90;;;;;;5093167;28;20072;-71
2021/07/23 01:20:59;;;;;;;9.15;5.90;;;17.40;99.90;;;;;;5093400;28;20067;-71
2021/07/23 01:23:32;;;;;;;9.02;5.80;;;17.40;99.90;;;;;;5094001;28;20047;-71
2021/07/23 01:26:02;;;;;;;10.43;6.03;;;17.40;99.90;;;;;;5093395;28;20035;-71
2021/07/23 01:28:30;;;;;;;10.05;6.95;;;17.40;99.90;;;;;;5093779;28;20036;-72
2021/07/23 01:30:58;;;;;;;9.13;7.30;;;17.40;99.90;;;;;;5094321;28;20495;-71
2021/07/23 01:33:25;;;;;;;12.85;7.40;;;17.40;99.90;;;;;;5097821;28;20071;-71
2021/07/23 01:35:51;;;;;;;11.55;6.93;;;17.40;99.90;;;;;;5097892;28;20047;-71
2021/07/23 01:38:20;;;;;;;9.23;6.90;;;17.40;99.90;;;;;;5098093;28;20040;-71
2021/07/23 01:40:46;;;;;;;9.68;6.88;;;17.40;99.90;;;;;;5097270;28;20059;-71
2021/07/23 01:43:14;;;;;;;13.02;7.85;;;17.40;99.90;;;;;;5097586;28;20067;-71
2021/07/23 01:45:41;;;;;;;10.05;7.07;;;17.40;99.90;;;;;;5097400;28;20388;-71
2021/07/23 01:48:06;;;;;;;11.88;7.35;;;17.40;99.90;;;;;;5097917;28;20044;-71
2021/07/23 01:50:32;;;;;;;12.55;7.20;;;17.40;99.90;;;;;;5097232;28;20036;-71
2021/07/23 01:52:58;;;;;;;12.38;7.45;;;17.40;99.90;;;;;;5097379;28;20032;-71
2021/07/23 01:55:23;;;;;;;11.73;7.60;;;17.30;99.90;;;;;;5097790;28;20043;-71
2021/07/23 01:57:49;;;;;;;14.30;9.00;;;17.30;99.90;;;;;;5097763;28;20036;-71
2021/07/23 02:00:15;;;;;;;9.85;6.88;;;17.30;99.90;;;;;;5096863;28;20051;-71
2021/07/23 02:02:41;;;;;;;11.10;7.43;;;17.30;99.90;;;;;;5097376;28;20115;-71
2021/07/23 02:05:07;;;;;;;10.65;6.68;;;17.30;99.90;;;;;;5097409;28;20531;-71
2021/07/23 02:07:33;;;;;;;11.45;6.63;;;17.30;99.90;;;;;;5097107;28;20088;-71
2021/07/23 02:10:00;;;;;;;9.50;6.85;;;17.30;99.90;;;;;;5096626;28;20114;-71
2021/07/23 02:12:26;;;;;;;7.82;6.28;;;17.30;99.90;;;;;;5097294;28;20043;-71
2021/07/23 02:14:52;;;;;;;9.45;6.47;;;17.30;99.90;;;;;;5097564;28;20036;-71
2021/07/23 02:17:18;;;;;;;11.45;5.47;;;17.30;99.90;;;;;;5097070;28;20036;-71
2021/07/23 02:19:43;;;;;;;8.98;6.55;;;17.30;99.90;;;;;;5096401;28;20063;-71
2021/07/23 02:22:09;;;;;;;9.25;6.22;;;17.40;99.90;;;;;;5096663;28;20040;-71
2021/07/23 02:24:35;;;;;;;12.27;6.95;;;17.40;99.90;;;;;;5096910;28;20430;-71
2021/07/23 02:27:00;;;;;;;9.35;5.95;;;17.30;99.90;;;;;;5097232;28;20047;-71
2021/07/23 02:29:26;;;;;;;9.10;6.53;;;17.40;99.90;;;;;;5095156;28;20399;-71
2021/07/23 02:31:52;;;;;;;8.77;6.07;;;17.40;99.90;;;;;;5096753;28;20040;-71
2021/07/23 02:34:18;;;;;;;9.80;5.85;;;17.40;99.90;;;;;;5097100;28;20039;-71
2021/07/23 02:36:43;;;;;;;9.35;5.97;;;17.40;99.90;;;;;;5096512;28;20046;-71
2021/07/23 02:39:09;;;;;;;11.60;6.57;;;17.40;99.90;;;;;;5096400;28;20040;-71
2021/07/23 02:41:35;;;;;;;7.90;5.82;;;17.40;99.90;;;;;;5096385;28;20545;-71
2021/07/23 02:44:02;;;;;;;11.57;6.50;;;17.30;99.90;;;;;;5095697;28;20044;-71
2021/07/23 02:46:29;;;;;;;10.73;6.25;;;17.30;99.90;;;;;;5096557;28;20036;-71
2021/07/23 02:48:55;;;;;;;8.23;5.53;;;17.30;99.90;;;;;;5095963;28;20047;-71
2021/07/23 02:51:21;;;;;;;7.90;5.38;;;17.30;99.90;;;;;;5096609;28;20065;-71
2021/07/23 02:53:46;;;;;;;10.05;6.65;;;17.20;99.90;;;;;;5096141;28;20036;-71
2021/07/23 02:56:12;;;;;;;9.52;6.25;;;17.30;99.90;;;;;;5096932;28;20048;-71
2021/07/23 02:58:40;;;;;;;10.43;6.30;;;17.30;99.90;;;;;;5095714;28;20063;-71
2021/07/23 03:01:10;;;;;;;8.63;6.55;;;17.30;99.90;;;;;;5095180;28;20040;-71
2021/07/23 03:03:36;;;;;;;10.40;6.45;;;17.30;99.90;;;;;;5094833;28;20043;-71
2021/07/23 03:06:02;;;;;;;10.13;6.18;;;17.30;99.90;;;;;;5095909;28;20415;-71
2021/07/23 03:08:28;;;;;;;7.75;5.55;;;17.30;99.90;;;;;;5095733;28;20048;-72
2021/07/23 03:10:54;;;;;;;8.05;5.50;;;17.30;99.90;;;;;;5095825;28;20040;-71
2021/07/23 03:13:20;;;;;;;11.00;5.78;;;17.30;99.90;;;;;;5095852;28;20384;-71
2021/07/23 03:15:46;;;;;;;8.25;5.93;;;17.20;99.90;;;;;;5096027;28;20040;-71
2021/07/23 03:18:11;;;;;;;9.32;6.10;;;17.30;99.90;;;;;;5095601;28;20071;-71
2021/07/23 03:20:38;;;;;;;10.98;5.95;;;17.30;99.90;;;;;;5095197;28;20032;-71
2021/07/23 03:23:05;;;;;;;8.40;5.30;;;17.20;99.90;;;;;;5095455;28;20082;-71
2021/07/23 03:25:31;;;;;;;9.77;6.07;;;17.20;99.90;;;;;;5094583;28;20043;-71
2021/07/23 03:27:58;;;;;;;9.60;6.15;;;17.20;99.90;;;;;;5095525;28;20062;-71
2021/07/23 03:30:23;;;;;;;9.90;5.88;;;17.20;99.90;;;;;;5095100;28;20036;-71
2021/07/23 03:32:50;;;;;;;9.23;6.32;;;17.20;99.90;;;;;;5096079;28;20062;-71
2021/07/23 03:35:16;;;;;;;9.55;6.35;;;17.20;99.90;;;;;;5095281;28;20539;-71
2021/07/23 03:37:41;;;;;;;7.95;5.93;;;17.20;99.90;;;;;;5095996;28;20118;-71
2021/07/23 03:40:08;;;;;;;9.05;6.00;;;17.10;99.90;;;;;;5095072;28;20042;-71
2021/07/23 03:42:35;;;;;;;10.68;5.82;;;17.20;99.90;;;;;;5095279;28;20046;-70
2021/07/23 03:45:01;;;;;;;9.50;6.10;;;17.20;99.90;;;;;;5095433;28;20041;-71
2021/07/23 03:47:27;;;;;;;13.43;6.90;;;17.20;99.90;;;;;;5095507;28;20035;-71
2021/07/23 03:49:52;;;;;;;11.45;6.75;;;17.10;99.90;;;;;;5094614;28;20032;-71
2021/07/23 03:52:18;;;;;;;10.55;6.45;;;17.10;99.90;;;;;;5095216;28;20036;-71
2021/07/23 03:54:44;;;;;;;10.15;5.93;;;17.20;99.90;;;;;;5094166;28;20044;-71
2021/07/23 03:57:09;;;;;;;12.27;6.15;;;17.20;99.90;;;;;;5095047;28;20475;-71
2021/07/23 03:59:35;;;;;;;13.05;6.97;;;17.10;99.90;;;;;;5095069;28;20036;-71
2021/07/23 04:02:03;;;;;;;9.82;7.00;;;17.20;99.90;;;;;;5094740;28;20404;-71
2021/07/23 04:04:29;;;;;;;9.10;5.80;;;17.10;99.90;;;;;;5094769;28;20040;-71
2021/07/23 04:06:59;;;;;;;12.05;7.43;;;17.10;99.90;;;;;;5094824;28;20040;-71
2021/07/23 04:09:26;;;;;;;8.85;6.28;;;17.10;99.90;;;;;;5094457;28;20040;-71
2021/07/23 04:11:52;;;;;;;12.45;7.20;;;17.10;99.90;;;;;;5094468;28;20400;-71
2021/07/23 04:14:19;;;;;;;10.65;7.00;;;17.10;99.90;;;;;;5094624;28;20036;-71
2021/07/23 04:16:44;;;;;;;11.18;6.82;;;17.10;99.90;;;;;;5094990;28;20040;-71
2021/07/23 04:19:11;;;;;;;14.00;6.88;;;17.10;99.90;;;;;;5094292;28;20047;-71
2021/07/23 04:21:37;;;;;;;12.90;7.65;;;17.10;99.90;;;;;;5095082;28;20117;-71
2021/07/23 04:24:03;;;;;;;9.95;7.03;;;17.10;99.90;;;;;;5094501;28;20039;-71
2021/07/23 04:26:28;;;;;;;11.68;8.10;;;17.10;99.90;;;;;;5094758;28;20040;-71
2021/07/23 04:28:54;;;;;;;9.55;6.80;;;17.10;99.90;;;;;;5094332;28;20051;-71
2021/07/23 04:31:20;;;;;;;9.02;6.35;;;17.00;99.90;;;;;;5094836;28;20372;-71
2021/07/23 04:33:47;;;;;;;12.23;6.60;;;17.10;99.90;;;;;;5094939;28;20047;-71
2021/07/23 04:36:13;;;;;;;9.25;6.78;;;17.20;99.90;;;;;;5094370;28;20119;-71
2021/07/23 04:38:38;;;;;;;9.15;7.53;;;17.20;99.90;;;;;;5093834;28;20123;-71
2021/07/23 04:41:04;;;;;;;9.32;7.30;;;17.20;99.90;;;;;;5093956;28;20036;-71
2021/07/23 04:43:33;;;;;;;10.00;7.05;;;17.10;99.90;;;;;;5094403;28;20063;-71
2021/07/23 04:45:59;;;;;;;11.75;7.20;;;17.20;99.90;;;;;;5094236;28;20036;-71
2021/07/23 04:48:24;;;;;;;9.55;6.95;;;17.20;99.90;;;;;;5093530;28;20097;-70
2021/07/23 04:50:50;;;;;;;9.38;6.95;;;17.20;99.90;;;;;;5093556;28;20040;-70
2021/07/23 04:53:17;;;;;;;9.93;7.13;;;17.20;99.90;;;;;;5094375;28;20529;-70
2021/07/23 04:55:48;;;;;;;11.27;7.72;;;17.30;99.90;;;;;;5093782;28;20032;-70
2021/07/23 04:58:14;;;;;;;10.82;7.75;;;17.20;99.90;;;;;;5094390;28;20043;-70
2021/07/23 05:00:40;;;;;;;12.05;7.78;;;17.20;99.90;;;;;;5093358;28;20450;-70
2021/07/23 05:03:10;;;;;;;9.18;7.25;;;17.20;99.90;;;;;;5093630;28;20039;-70
2021/07/23 05:05:40;;;;;;;11.30;8.48;;;17.20;99.90;;;;;;5093221;28;20110;-70
2021/07/23 05:08:06;;;;;;;9.38;7.75;;;17.30;99.90;;;;;;5093602;28;20140;-70
2021/07/23 05:10:32;;;;;;;10.55;8.35;;;17.30;99.90;;;;;;5093470;28;20195;-70
2021/07/23 05:12:58;;;;;;;13.32;7.90;;;17.30;99.90;;;;;;5093565;28;20039;-70
2021/07/23 05:15:25;;;;;;;10.32;8.30;;;17.20;99.90;;;;;;5093601;28;20039;-70
2021/07/23 05:17:52;;;;;;;10.85;8.68;;;17.30;99.90;;;;;;5093712;28;20602;-70
2021/07/23 05:20:17;;;;;;;13.68;8.93;;;17.20;99.90;;;;;;5093489;28;20111;-71
2021/07/23 05:22:43;;;;;;;13.20;8.43;;;17.20;99.90;;;;;;5093540;28;20036;-71
2021/07/23 05:25:11;;;;;;;11.45;9.55;;;17.20;99.90;;;;;;5093430;28;20039;-71
2021/07/23 05:27:37;;;;;;;12.40;8.60;;;17.20;99.90;;;;;;5093418;28;20035;-70
2021/07/23 05:30:04;;;;;;;12.30;9.30;;;17.30;99.90;;;;;;5093167;28;20032;-71
2021/07/23 05:32:30;;;;;;;14.40;10.15;;;17.20;99.90;;;;;;5093599;28;20043;-71
2021/07/23 05:34:56;;;;;;;13.73;8.90;;;17.20;99.90;;;;;;5093324;28;20040;-70
2021/07/23 05:37:21;;;;;;;13.80;9.73;;;17.20;99.90;;;;;;5093069;28;20046;-69
2021/07/23 05:39:48;;;;;;;11.57;9.30;;;17.20;99.90;;;;;;5091330;28;20081;-69
2021/07/23 05:42:14;;;;;;;15.05;10.77;;;17.20;99.90;;;;;;5091558;28;20119;-69
2021/07/23 05:44:40;;;;;;;12.02;9.30;;;17.20;99.90;;;;;;5091753;28;20033;-69
2021/07/23 05:47:05;;;;;;;12.82;10.20;;;17.20;99.90;;;;;;5091614;28;20043;-69
2021/07/23 05:49:31;;;;;;;11.60;9.10;;;17.20;99.90;;;;;;5091391;28;20399;-69
2021/07/23 05:51:57;;;;;;;11.57;9.98;;;17.20;99.90;;;;;;5091558;28;20071;-69
2021/07/23 05:54:22;;;;;;;13.43;10.50;;;17.20;99.90;;;;;;5093113;28;20032;-69
2021/07/23 05:56:48;;;;;;;15.38;10.27;;;17.30;99.90;;;;;;5093322;28;20070;-69
2021/07/23 05:59:14;;;;;;;11.77;9.98;;;17.20;99.90;;;;;;5093203;28;20040;-69
2021/07/23 06:01:40;;;;;;;12.77;9.45;;;17.20;99.90;;;;;;5093025;28;20052;-69
2021/07/23 06:04:05;;;;;;;13.75;9.63;;;17.20;99.90;;;;;;5093172;28;20377;-69
2021/07/23 06:06:31;;;;;;;15.73;10.15;;;17.20;99.90;;;;;;5093399;28;20036;-69
2021/07/23 06:08:58;;;;;;;12.93;10.73;;;17.30;99.90;;;;;;5093107;28;20040;-69
2021/07/23 06:11:24;;;;;;;12.13;9.02;;;17.20;99.90;;;;;;5093127;28;20067;-69
2021/07/23 06:13:50;;;;;;;12.70;9.80;;;17.30;99.90;;;;;;5093587;28;20115;-69
2021/07/23 06:16:15;;;;;;;14.25;11.05;;;17.30;99.90;;;;;;5092896;28;20040;-69
2021/07/23 06:18:41;;;;;;;13.95;9.95;;;17.30;99.90;;;;;;5096228;28;20039;-70
2021/07/23 06:21:07;;;;;;;15.00;11.25;;;17.30;99.90;;;;;;5095939;28;20109;-69
2021/07/23 06:23:32;;;;;;;12.98;11.02;;;17.30;99.90;;;;;;5097382;28;20074;-69
2021/07/23 06:26:06;;;;;;;16.92;10.98;;;17.30;99.90;;;;;;5096710;28;20036;-69
2021/07/23 06:28:31;;;;;;;;;;;17.30;99.90;;;;;;5097403;28;20044;-69
2021/07/23 06:31:04;;;;;;;11.48;10.27;;;17.20;99.90;;;;;;5096762;28;19938;-69
2021/07/23 06:33:31;;;;;;;14.90;10.82;;;17.20;99.90;;;;;;5096893;28;20044;-69
2021/07/23 06:35:57;;;;;;;13.32;9.52;;;17.30;99.90;;;;;;5096823;28;20052;-69
2021/07/23 06:38:23;;;;;;;14.35;9.35;;;17.30;99.90;;;;;;5096999;28;20094;-69
2021/07/23 06:40:49;;;;;;;16.15;10.73;;;17.30;99.90;;;;;;5096019;28;20044;-69
2021/07/23 06:43:15;;;;;;;13.60;10.35;;;17.30;99.90;;;;;;5096863;28;20040;-69
2021/07/23 06:45:40;;;;;;;11.82;9.73;;;17.30;99.90;;;;;;5096574;28;20475;-69
2021/07/23 06:48:06;;;;;;;14.88;10.00;;;17.30;99.90;;;;;;5096352;28;20036;-69
2021/07/23 06:50:32;;;;;;;16.33;10.75;;;17.30;99.90;;;;;;5096178;28;20123;-69
2021/07/23 06:53:01;;;;;;;13.20;9.85;;;17.30;99.90;;;;;;5095964;28;20476;-69
2021/07/23 06:55:27;;;;;;;16.60;10.90;;;17.30;99.90;;;;;;5096736;28;20032;-69
2021/07/23 06:57:52;;;;;;;15.65;10.95;;;17.30;99.90;;;;;;5096215;28;20066;-69
2021/07/23 07:00:18;;;;;;;17.98;11.57;;;17.30;99.90;;;;;;5096074;28;20036;-69
2021/07/23 07:02:44;;;;;;;17.25;12.02;;;17.30;99.90;;;;;;5095121;28;20044;-69
2021/07/23 07:05:10;;;;;;;15.65;11.98;;;17.30;99.90;;;;;;5096555;28;20119;-69
2021/07/23 07:07:36;;;;;;;18.02;11.55;;;17.30;99.90;;;;;;5096162;28;20502;-69
2021/07/23 07:10:02;;;;;;;13.93;11.63;;;17.30;99.90;;;;;;5095453;28;20130;-70
2021/07/23 07:12:27;;;;;;;18.50;11.90;;;17.30;99.90;;;;;;5095578;28;20422;-70
2021/07/23 07:14:53;;;;;;;13.57;11.70;;;17.30;99.90;;;;;;5095859;28;20115;-70
2021/07/23 07:17:20;;;;;;;16.45;11.20;;;17.30;99.90;;;;;;5096094;28;20062;-70
2021/07/23 07:19:46;;;;;;;15.00;10.80;;;17.30;99.90;;;;;;5095581;28;20392;-70
2021/07/23 07:22:11;;;;;;;15.27;10.50;;;17.30;99.90;;;;;;5096083;28;20036;-70
2021/07/23 07:24:37;;;;;;;13.38;10.75;;;17.30;99.90;;;;;;5096175;28;20032;-70
2021/07/23 07:27:03;;;;;;;13.20;10.60;;;17.40;99.90;;;;;;5095476;28;20085;-70
2021/07/23 07:29:29;;;;;;;14.88;11.18;;;17.40;99.90;;;;;;5094708;28;20043;-70
2021/07/23 07:31:54;;;;;;;16.05;11.05;;;17.40;99.90;;;;;;5095571;28;20051;-70
2021/07/23 07:34:20;;;;;;;14.00;10.98;;;17.50;99.90;;;;;;5095487;28;20050;-70
2021/07/23 07:36:46;;;;;;;16.02;11.70;;;17.50;99.90;;;;;;5095531;28;20086;-70
2021/07/23 07:39:13;;;;;;;15.93;10.88;;;17.50;99.90;;;;;;5095317;28;20036;-70
2021/07/23 07:41:39;;;;;;;16.98;11.57;;;17.60;99.90;;;;;;5095928;28;20040;-70
2021/07/23 07:44:05;;;;;;;13.60;10.27;;;17.60;99.90;;;;;;5095379;28;20040;-70
2021/07/23 07:46:31;;;;;;;13.65;10.95;;;17.70;99.90;;;;;;5095436;28;20460;-70
2021/07/23 07:48:57;;;;;;;14.77;10.20;;;17.70;99.90;;;;;;5094959;28;20089;-70
2021/07/23 07:51:23;;;;;;;14.32;9.23;;;17.80;99.90;;;;;;5095225;28;20036;-70
2021/07/23 07:53:49;;;;;;;13.68;9.35;;;17.80;99.90;;;;;;5094969;28;20043;-70
2021/07/23 07:56:15;;;;;;;12.63;9.60;;;17.80;99.90;;;;;;5095091;28;20036;-70
2021/07/23 07:58:41;;;;;;;12.25;9.27;;;17.90;99.90;;;;;;5094655;28;20046;-70
2021/07/23 08:01:10;;;;;;;12.90;9.27;;;17.90;99.90;;;;;;5095055;28;20074;-70
2021/07/23 08:03:36;;;;;;;13.02;8.77;;;17.90;99.90;;;;;;5095580;28;20373;-70
2021/07/23 08:06:07;;;;;;;12.38;9.13;;;18.00;99.90;;;;;;5095159;28;20040;-70
2021/07/23 08:08:33;;;;;;;17.48;10.15;;;18.00;99.90;;;;;;5095270;28;20146;-71
2021/07/23 08:10:59;;;;;;;11.07;8.88;;;18.00;99.90;;;;;;5094524;28;20480;-70
2021/07/23 08:13:27;;;;;;;11.55;8.57;;;18.00;99.90;;;;;;5094735;28;20043;-70
2021/07/23 08:15:54;;;;;;;9.93;7.88;;;18.10;99.90;;;;;;5095068;28;20099;-70
2021/07/23 08:18:20;;;;;;;13.23;8.10;;;18.00;99.90;;;;;;5094377;28;20048;-70
2021/07/23 08:20:50;;;;;;;10.85;8.75;;;18.00;99.90;;;;;;5094698;28;20122;-70
2021/07/23 08:23:16;;;;;;;10.70;8.65;;;18.10;99.90;;;;;;5094450;28;20039;-70
2021/07/23 08:25:42;;;;;;;14.38;8.93;;;18.10;99.90;;;;;;5094414;28;20495;-70
2021/07/23 08:28:07;;;;;;;14.18;8.48;;;18.20;99.90;;;;;;5094665;28;20115;-70
2021/07/23 08:30:33;;;;;;;9.98;7.75;;;18.20;99.90;;;;;;5093919;28;20115;-70
2021/07/23 08:32:59;;;;;;;14.18;8.82;;;18.20;99.90;;;;;;5094904;28;20487;-70
2021/07/23 08:35:24;;;;;;;12.63;9.00;;;18.20;99.90;;;;;;5094331;28;20036;-70
2021/07/23 08:37:51;;;;;;;9.98;8.13;;;18.30;99.90;;;;;;5094526;28;20040;-70
2021/07/23 08:40:17;;;;;;;9.57;8.40;;;18.40;99.90;;;;;;5093190;28;20465;-70
2021/07/23 08:42:43;;;;;;;11.82;9.02;;;18.40;99.90;;;;;;5093917;28;20089;-70
2021/07/23 08:45:09;;;;;;;12.27;9.35;;;18.50;99.90;;;;;;5094136;28;20036;-69
2021/07/23 08:47:36;;;;;;;11.27;9.05;;;18.50;99.90;;;;;;5094023;28;20127;-70
2021/07/23 08:50:04;;;;;;;12.50;8.45;;;18.60;99.90;;;;;;5093660;28;20054;-69
2021/07/23 08:52:44;;;;;;;12.20;8.80;;;18.70;99.90;;;;;;5094108;28;20032;-70
2021/07/23 08:55:12;;;;;;;14.02;9.43;;;18.90;99.90;;;;;;5094408;28;20110;-70
2021/07/23 08:57:38;;;;;;;15.13;8.95;;;18.90;99.90;;;;;;5093718;28;20055;-70
2021/07/23 09:00:09;;;;;;;16.10;9.73;;;19.10;99.90;;;;;;5093496;28;20097;-71
2021/07/23 09:03:04;;;;;;;15.40;9.15;;;19.30;99.90;;;;;;5094039;28;20070;-71
2021/07/23 09:05:34;;;;;;;12.35;8.68;;;19.40;99.90;;;;;;5091394;28;20059;-71
2021/07/23 09:08:01;;;;;;;14.35;9.07;;;19.60;99.90;;;;;;5094188;28;20132;-71
2021/07/23 09:10:31;;;;;;;10.77;7.72;;;19.70;99.90;;;;;;5093898;28;20089;-71
2021/07/23 09:13:00;;;;;;;11.80;7.80;;;19.70;99.90;;;;;;5093797;28;20385;-71
2021/07/23 09:15:27;;;;;;;10.65;8.02;;;19.80;99.90;;;;;;5094323;28;20036;-71
2021/07/23 09:17:54;;;;;;;9.45;8.18;;;19.80;99.90;;;;;;5093833;28;20040;-71
2021/07/23 09:20:30;;;;;;;10.70;8.05;;;19.80;99.90;;;;;;5093083;28;20495;-71
2021/07/23 09:23:05;;;;;;;13.43;8.35;;;19.80;99.90;;;;;;5093581;28;20068;-69
2021/07/23 09:25:44;;;;;;;9.02;7.22;;;19.90;99.90;;;;;;5098812;28;20035;-68
2021/07/23 09:28:20;;;;;;;10.85;7.53;;;19.80;99.90;;;;;;5113919;28;20112;-68
2021/07/23 09:30:46;;;;;;;7.95;6.55;;;19.80;99.90;;;;;;5113378;28;20487;-68
2021/07/23 09:33:12;;;;;;;11.05;6.68;;;20.00;99.90;;;;;;5114056;28;20422;-68
2021/07/23 09:35:51;;;;;;;7.88;7.05;;;20.10;99.90;;;;;;5114402;28;20111;-69
2021/07/23 09:38:18;;;;;;;8.23;6.45;;;20.20;99.90;;;;;;5114115;28;20057;-68
2021/07/23 09:40:44;;;;;;;10.32;6.18;;;20.20;99.90;;;;;;5113315;28;20396;-68
2021/07/23 09:43:10;;;;;;;11.15;6.75;;;20.30;99.90;;;;;;5113828;28;20144;-68
2021/07/23 09:45:36;;;;;;;11.80;8.15;;;20.30;99.90;;;;;;5112944;28;20491;-68
2021/07/23 09:48:09;;;;;;;8.48;6.80;;;20.30;99.90;;;;;;5113774;28;20039;-68
2021/07/23 09:50:43;;;;;;;10.63;7.50;;;20.30;99.90;;;;;;5113049;28;20075;-69
2021/07/23 09:53:19;;;;;;;10.52;7.00;;;20.30;99.90;;;;;;5116653;28;20391;-68
2021/07/23 09:55:49;;;;;;;9.60;7.43;;;20.20;99.90;;;;;;5118132;28;20092;-68
2021/07/23 09:58:26;;;;;;;10.90;7.47;;;20.10;99.90;;;;;;5117915;28;20035;-68
2021/07/23 10:00:58;;;;;;;8.43;6.55;;;20.20;99.90;;;;;;5117274;27;20040;-68
2021/07/23 10:03:27;;;;;;;9.15;7.28;;;20.30;99.90;;;;;;5117876;28;20135;-68
2021/07/23 10:06:03;;;;;;;8.68;6.53;;;20.30;99.90;;;;;;5117684;28;20036;-68
2021/07/23 10:08:56;;;;;;;10.52;7.15;;;20.30;99.90;;;;;;5117190;28;20035;-68
2021/07/23 10:11:23;;;;;;;;;;;20.20;99.90;;;;;;5116707;28;20051;-68
2021/07/23 10:13:52;;;;;;;10.95;6.28;;;20.20;99.90;;;;;;5116062;28;19924;-68
2021/07/23 10:16:18;;;;;;;13.70;6.95;;;20.20;99.90;;;;;;5117457;28;20038;-68
2021/07/23 10:18:46;;;;;;;12.98;6.70;;;20.30;99.90;;;;;;5116719;28;20518;-68
2021/07/23 10:21:12;;;;;;;10.35;6.70;;;20.40;99.90;;;;;;5117111;28;20039;-68
2021/07/23 10:23:39;;;;;;;7.72;6.53;;;20.40;99.90;;;;;;5117078;28;20043;-68
2021/07/23 10:26:05;;;;;;;10.07;6.47;;;20.40;99.90;;;;;;5117527;28;20035;-68
2021/07/23 10:28:38;;;;;;;8.00;6.93;;;20.40;99.90;;;;;;5116579;28;20040;-68
2021/07/23 10:31:24;;;;;;;7.85;5.95;;;20.50;99.90;;;;;;5115824;28;20039;-68
2021/07/23 10:33:55;;;;;;;8.02;6.28;;;20.40;99.90;;;;;;5117388;28;20118;-68
2021/07/23 10:36:41;;;;;;;9.20;5.82;;;20.30;99.90;;;;;;5116848;28;20036;-68
2021/07/23 10:39:19;;;;;;;10.45;6.20;;;20.30;99.90;;;;;;5116636;28;20410;-68
2021/07/23 10:41:50;;;;;;;7.88;5.88;;;20.20;99.90;;;;;;5117044;28;20520;-69
2021/07/23 10:44:28;;;;;;;10.05;6.65;;;20.10;99.90;;;;;;5117113;28;20153;-68
2021/07/23 10:46:58;;;;;;;9.80;6.80;;;20.10;99.90;;;;;;5117055;28;20038;-68
2021/07/23 10:49:27;;;;;;;9.23;6.25;;;20.10;99.90;;;;;;5116192;27;20036;-68
2021/07/23 10:51:58;;;;;;;7.30;6.15;;;20.00;99.90;;;;;;5116680;28;20031;-68
2021/07/23 10:54:25;;;;;;;9.80;5.90;;;20.10;99.90;;;;;;5117223;28;20209;-68
2021/07/23 10:56:58;;;;;;;7.57;5.97;;;20.00;99.90;;;;;;5116575;28;20044;-68
2021/07/23 10:59:41;;;;;;;8.13;5.30;;;19.90;99.90;;;;;;5116493;28;20552;-67
2021/07/23 11:02:14;;;;;;;6.72;4.80;;;19.90;99.90;;;;;;5116463;27;20071;-67
2021/07/23 11:04:44;;;;;;;7.78;5.60;;;19.80;99.90;;;;;;5115593;27;20048;-67
2021/07/23 11:07:11;;;;;;;7.57;5.60;;;19.80;99.90;;;;;;5116896;28;20042;-67
2021/07/23 11:09:38;;;;;;;7.57;5.78;;;19.80;99.90;;;;;;5115989;28;20040;-67
2021/07/23 11:12:18;;;;;;;7.65;4.90;;;19.80;99.90;;;;;;5116169;27;20439;-68
2021/07/23 11:14:54;;;;;;;8.77;4.97;;;19.90;99.90;;;;;;5116118;28;20047;-68
2021/07/23 11:17:21;;;;;;;8.90;4.80;;;20.00;99.90;;;;;;5116087;28;20093;-67
2021/07/23 11:19:48;;;;;;;6.72;5.68;;;20.10;99.90;;;;;;5115807;28;20075;-68
2021/07/23 11:22:25;;;;;;;6.80;5.40;;;20.10;99.90;;;;;;5115993;28;20116;-68
2021/07/23 11:24:57;;;;;;;7.38;5.50;;;20.20;99.90;;;;;;5116329;28;20044;-68
2021/07/23 11:27:34;;;;;;;9.05;5.13;;;20.20;99.90;;;;;;5115871;28;20032;-68
2021/07/23 11:30:11;;;;;;;8.77;4.93;;;20.20;99.90;;;;;;5115985;28;20074;-68
2021/07/23 11:32:55;;;;;;;11.80;5.35;;;20.30;99.90;;;;;;5116697;28;20043;-67
2021/07/23 11:35:24;;;;;;;9.43;5.30;;;20.30;99.90;;;;;;5116345;28;20111;-68
2021/07/23 11:37:52;;;;;;;6.70;5.15;;;20.40;99.90;;;;;;5116039;28;20031;-68
2021/07/23 11:40:20;;;;;;;7.03;4.97;;;20.40;99.90;;;;;;5115684;28;20070;-68
2021/07/23 11:42:50;;;;;;;8.27;5.40;;;20.40;99.90;;;;;;5116399;28;20031;-68
2021/07/23 11:45:18;;;;;;;9.70;5.22;;;20.30;99.90;;;;;;5115573;28;20066;-68
2021/07/23 11:47:45;;;;;;;6.57;5.22;;;20.30;99.90;;;;;;5115978;28;20090;-68
2021/07/23 11:50:12;;;;;;;5.45;4.45;;;20.40;99.90;;;;;;5115246;28;20062;-68
2021/07/23 11:52:39;;;;;;;9.77;5.65;;;20.30;99.90;;;;;;5115852;28;20044;-67
2021/07/23 11:55:07;;;;;;;7.43;5.00;;;20.40;99.90;;;;;;5115489;28;20100;-67
2021/07/23 11:57:50;;;;;;;7.00;4.80;;;20.50;99.90;;;;;;5115925;28;20454;-68
2021/07/23 12:00:23;;;;;;;10.93;6.00;;;20.40;99.90;;;;;;5114881;28;20044;-67
2021/07/23 12:02:54;;;;;;;16.17;7.97;;;20.30;99.90;;;;;;5115772;28;20092;-67
2021/07/23 12:05:20;;;;;;;8.15;5.60;;;20.20;99.90;;;;;;5115177;28;20115;-67
2021/07/23 12:08:00;;;;;;;8.40;4.90;;;20.00;99.90;;;;;;5115705;28;20062;-67
2021/07/23 12:10:27;;;;;;;6.85;4.35;;;20.00;99.90;;;;;;5114691;28;20047;-68
2021/07/23 12:12:53;;;;;;;7.30;4.57;;;19.70;99.90;;;;;;5115329;28;20380;-68
2021/07/23 12:15:20;;;;;;;9.15;4.85;;;19.70;99.90;;;;;;5114855;28;20502;-68
2021/07/23 12:17:48;;;;;;;6.40;4.28;;;19.70;99.90;;;;;;5114987;28;20036;-68
2021/07/23 12:20:16;;;;;;;7.45;4.20;;;19.50;99.90;;;;;;5114551;28;20046;-68
2021/07/23 12:23:06;;;;;;;9.05;4.72;;;19.40;99.90;;;;;;5115484;28;20038;-68
2021/07/23 12:25:43;;;;;;;6.35;4.13;;;19.40;99.90;;;;;;5114786;28;20035;-67
2021/07/23 12:28:17;;;;;;;9.88;4.50;;;19.30;99.90;;;;;;5115236;28;20118;-68
2021/07/23 12:30:44;;;;;;;6.38;4.10;;;19.30;99.90;;;;;;5114777;28;20110;-68
2021/07/23 12:33:32;;;;;;;7.72;5.07;;;19.20;99.90;;;;;;5114732;28;20114;-68
2021/07/23 12:36:18;;;;;;;6.28;4.22;;;19.30;99.90;;;;;;5114833;28;20039;-68
2021/07/23 12:38:59;;;;;;;6.38;4.25;;;19.20;99.90;;;;;;5114123;28;20122;-68
2021/07/23 12:41:25;;;;;;;8.90;4.03;;;19.10;99.90;;;;;;5114409;28;20047;-68
2021/07/23 12:44:04;;;;;;;6.53;4.00;;;19.20;99.90;;;;;;5114486;28;20047;-67